Flight Track Log - Related Links

Times and Time Zones

All times are in EDT time to prevent confusion due to time zone crossing. See the SWA127 flight status page for this flight to view local times or setup timezone preferences in your user account.

Time Position Orientation Groundspeed Altitude Reporting Facility
EDT Latitude Longitude Course Direction KTS MPH feet Rate Location/Type
Thu 08:52:28 AM 39.3333 -94.7167 339° North 159 183 1,900  Level Kansas City TRACON
Thu 08:53:16 AM 39.3667 -94.7333 339° North 187 215 3,100 1,882 Climbing Kansas City TRACON
Thu 08:54:10 AM 39.3667 -94.8000 270° West 267 307 5,100 2,737 Climbing Kansas City TRACON
Thu 08:55:10 AM 39.3500 -94.9000 258° West 266 306 8,300 2,976 Climbing Kansas City TRACON
Thu 08:56:17 AM 39.3314 -94.9800 253° West 252 290 11,400 2,578 Climbing Kansas City Center
Thu 08:57:18 AM 39.3117 -95.0856 256° West 272 313 13,800 2,650 Climbing Kansas City Center
Thu 08:58:17 AM 39.2750 -95.1783 243° Southwest 292 336 16,700 2,852 Climbing Kansas City Center
Thu 08:59:20 AM 39.2208 -95.2650 231° Southwest 289 333 19,600 2,256 Climbing Kansas City Center
Thu 09:00:22 AM 39.1706 -95.3483 232° Southwest 296 341 21,400 1,790 Climbing Kansas City Center
Thu 09:01:24 AM 39.1150 -95.4375 231° Southwest 316 364 23,300 1,770 Climbing Kansas City Center
Thu 09:02:24 AM 39.0614 -95.5256 232° Southwest 325 374 25,000 1,686 Climbing Kansas City Center
Thu 09:03:25 AM 38.9975 -95.6303 232° Southwest 332 382 26,700 1,463 Climbing Kansas City Center
Thu 09:04:27 AM 38.9397 -95.7222 231° Southwest 342 394 28,000 1,230 Climbing Kansas City Center
Thu 09:05:27 AM 38.8806 -95.8172 231° Southwest 355 409 29,200 1,377 Climbing Kansas City Center
Thu 09:06:29 AM 38.8106 -95.9281 231° Southwest 358 412 30,800 1,525 Climbing Kansas City Center
Thu 09:07:29 AM 38.7514 -96.0231 231° Southwest 356 410 32,300 1,438 Climbing Kansas City Center
Thu 09:08:30 AM 38.6933 -96.1153 231° Southwest 350 403 33,700 1,279 Climbing Kansas City Center
Thu 09:09:31 AM 38.6267 -96.2208 231° Southwest 342 394 34,900 934 Climbing Kansas City Center
Thu 09:10:32 AM 38.5697 -96.3114 231° Southwest 341 392 35,600 545 Climbing Kansas City Center
Thu 09:11:32 AM 38.5111 -96.4031 231° Southwest 347 399 36,000 194 Climbing Kansas City Center
Thu 09:12:36 AM 38.4517 -96.4967 231° Southwest 353 406 36,000  Level Kansas City Center
Thu 09:13:36 AM 38.3575 -96.5781 214° Southwest 346 398 36,000  Level Kansas City Center
Thu 09:14:37 AM 38.2667 -96.6225 201° Southwest 347 399 36,000  Level Kansas City Center
Thu 09:15:39 AM 38.1769 -96.6667 201° Southwest 345 397 36,000  Level Kansas City Center
Thu 09:16:39 AM 38.0856 -96.7117 201° Southwest 348 400 36,000  Level Kansas City Center
Thu 09:17:41 AM 37.9958 -96.7544 201° Southwest 345 397 36,000  Level Kansas City Center
Thu 09:18:42 AM 37.9053 -96.7981 201° Southwest 346 398 36,000  Level Kansas City Center
Thu 09:19:44 AM 37.8156 -96.8417 201° Southwest 344 396 36,000  Level Kansas City Center
Thu 09:20:44 AM 37.7256 -96.8856 201° Southwest 345 397 36,000  Level Kansas City Center
Thu 09:21:46 AM 37.6347 -96.9283 200° South 348 400 36,000  Level Kansas City Center
Thu 09:22:46 AM 37.5444 -96.9711 201° Southwest 345 397 36,000  Level Kansas City Center
Thu 09:23:48 AM 37.4533 -97.0150 201° Southwest 348 400 36,000  Level Kansas City Center
Thu 09:24:48 AM 37.3617 -97.0592 201° Southwest 350 403 36,000  Level Kansas City Center
Thu 09:25:50 AM 37.2689 -97.1017 200° South 352 405 36,000  Level Kansas City Center
Thu 09:26:51 AM 37.1775 -97.1461 201° Southwest 352 405 36,000  Level Kansas City Center
Thu 09:27:52 AM 37.0686 -97.1958 200° South 347 399 36,000  Level Kansas City Center
Thu 09:28:52 AM 36.9753 -97.2417 201° Southwest 353 406 36,000  Level Kansas City Center
Thu 09:29:53 AM 36.8833 -97.2814 199° South 350 403 36,000  Level Kansas City Center
Thu 09:30:57 AM 36.7989 -97.3211 201° Southwest 353 406 36,000  Level Kansas City Center
Thu 09:31:56 AM 36.7075 -97.3656 201° Southwest 353 406 36,000  Level Kansas City Center
Thu 09:32:58 AM 36.6053 -97.4125 200° South 355 409 36,000  Level Kansas City Center
Thu 09:33:59 AM 36.5042 -97.4636 202° Southwest 355 409 36,000  Level Kansas City Center
Thu 09:35:02 AM 36.4117 -97.5064 200° South 357 411 36,000  Level Kansas City Center
Thu 09:36:04 AM 36.3189 -97.5489 200° South 356 410 36,000  Level Kansas City Center
Thu 09:37:05 AM 36.2258 -97.5911 200° South 356 410 36,000  Level Kansas City Center
Thu 09:38:05 AM 36.1336 -97.6336 200° South 355 409 36,000  Level Kansas City Center
Thu 09:39:06 AM 36.0414 -97.6769 201° Southwest 356 410 36,000  Level Kansas City Center
Thu 09:40:09 AM 35.9483 -97.7183 200° South 356 410 36,000  Level Kansas City Center
Thu 09:41:03 AM 35.8561 -97.7644 202° Southwest 356 410 36,000  Level Fort Worth Center
Thu 09:42:03 AM 35.7622 -97.8075 200° South 351 404 36,000  Level Fort Worth Center
Thu 09:43:03 AM 35.6681 -97.8506 200° South 351 404 36,000  Level Fort Worth Center
Thu 09:44:03 AM 35.5783 -97.8933 201° Southwest 351 404 36,000  Level Fort Worth Center
Thu 09:45:03 AM 35.4844 -97.9336 199° South 351 404 36,000  Level Fort Worth Center
Thu 09:46:03 AM 35.3903 -97.9789 201° Southwest 351 404 36,000  Level Fort Worth Center
Thu 09:47:03 AM 35.2964 -98.0189 199° South 351 404 36,000  Level Fort Worth Center
Thu 09:48:03 AM 35.2064 -98.0614 201° Southwest 351 404 36,000  Level Fort Worth Center
Thu 09:49:03 AM 35.1144 -98.1014 200° South 351 404 36,000  Level Fort Worth Center
Thu 09:50:03 AM 35.0225 -98.1411 199° South 351 404 36,000  Level Fort Worth Center
Thu 09:51:03 AM 34.9303 -98.1833 201° Southwest 351 404 36,000  Level Fort Worth Center
Thu 09:52:03 AM 34.8278 -98.2281 200° South 351 404 36,000  Level Fort Worth Center
Thu 09:53:03 AM 34.7378 -98.2703 201° Southwest 356 410 36,000  Level Fort Worth Center
Thu 09:54:03 AM 34.6458 -98.3097 199° South 350 403 36,000  Level Fort Worth Center
Thu 09:55:03 AM 34.5536 -98.3489 199° South 350 403 36,000  Level Fort Worth Center
Thu 09:56:03 AM 34.4617 -98.3883 199° South 350 403 36,000  Level Fort Worth Center
Thu 09:57:03 AM 34.3717 -98.4325 202° Southwest 350 403 36,000  Level Fort Worth Center
Thu 09:58:03 AM 34.2794 -98.4717 199° South 350 403 36,000  Level Fort Worth Center
Thu 09:59:03 AM 34.1872 -98.5131 200° South 350 403 36,000  Level Fort Worth Center
Thu 10:00:03 AM 34.0950 -98.5522 199° South 350 403 36,000  Level Fort Worth Center
Thu 10:01:03 AM 34.0133 -98.5811 196° South 345 397 36,000  Level Fort Worth Center
Thu 10:02:03 AM 33.9294 -98.6350 208° Southwest 350 403 36,000  Level Fort Worth Center
Thu 10:03:03 AM 33.8475 -98.6939 211° Southwest 343 395 36,000  Level Fort Worth Center
Thu 10:04:03 AM 33.7675 -98.7528 211° Southwest 348 400 36,000  Level Fort Worth Center
Thu 10:05:03 AM 33.6856 -98.8114 211° Southwest 343 395 36,000  Level Fort Worth Center
Thu 10:06:03 AM 33.6075 -98.8725 213° Southwest 343 395 36,000  Level Fort Worth Center
Thu 10:07:03 AM 33.5256 -98.9283 210° Southwest 343 395 36,000  Level Fort Worth Center
Thu 10:08:03 AM 33.4475 -98.9869 212° Southwest 338 389 36,000  Level Fort Worth Center
Thu 10:09:03 AM 33.3697 -99.0428 211° Southwest 338 389 36,000  Level Fort Worth Center
Thu 10:10:03 AM 33.2894 -99.1008 211° Southwest 338 389 36,000  Level Fort Worth Center
Thu 10:11:03 AM 33.2114 -99.1589 212° Southwest 338 389 36,000  Level Fort Worth Center
Thu 10:12:03 AM 33.1292 -99.2169 211° Southwest 343 395 36,000  Level Fort Worth Center
Thu 10:13:03 AM 33.0492 -99.2747 211° Southwest 343 395 36,000  Level Fort Worth Center
Thu 10:14:03 AM 32.9625 -99.3372 211° Southwest 343 395 36,000  Level Fort Worth Center
Thu 10:15:03 AM 32.8803 -99.3972 212° Southwest 343 395 36,000  Level Fort Worth Center
Thu 10:16:03 AM 32.8000 -99.4525 210° Southwest 343 395 36,000  Level Fort Worth Center
Thu 10:17:03 AM 32.7178 -99.5122 211° Southwest 343 395 36,000  Level Fort Worth Center
Thu 10:18:03 AM 32.6372 -99.5694 211° Southwest 343 395 36,000  Level Fort Worth Center
Thu 10:19:03 AM 32.5550 -99.6242 209° Southwest 343 395 36,000  Level Fort Worth Center
Thu 10:20:03 AM 32.4744 -99.6839 212° Southwest 343 395 36,000  Level Fort Worth Center
Thu 10:21:03 AM 32.3919 -99.7433 211° Southwest 343 395 36,000  Level Fort Worth Center
Thu 10:22:03 AM 32.3117 -99.8003 211° Southwest 343 395 36,000  Level Fort Worth Center
Thu 10:23:03 AM 32.2314 -99.8569 211° Southwest 343 395 36,000  Level Fort Worth Center
Thu 10:24:03 AM 32.1656 -99.9044 211° Southwest 343 395 36,000  Level Fort Worth Center
Thu 10:25:03 AM 32.0747 -99.9656 210° Southwest 343 395 36,000 -50 Level Fort Worth Center
Thu 10:26:03 AM 31.9919 -100.0244 211° Southwest 343 395 35,900 -550 Descending Fort Worth Center
Thu 10:27:03 AM 31.9094 -100.0833 211° Southwest 343 395 34,900 -450 Descending Fort Worth Center
Thu 10:28:03 AM 31.8289 -100.1397 211° Southwest 343 395 35,000  Climbing Fort Worth Center
Thu 10:30:04 AM 31.6675 -100.2544 211° Southwest 337 388 34,900 -33 Descending Houston Center
Thu 10:31:06 AM 31.5869 -100.3097 210° Southwest 336 387 34,900  Level Houston Center
Thu 10:32:08 AM 31.5058 -100.3653 210° Southwest 338 389 34,900  Level Houston Center
Thu 10:33:10 AM 31.4236 -100.4200 210° Southwest 339 390 34,900  Level Houston Center
Thu 10:34:12 AM 31.2953 -100.3889 168° South 427 491 34,900  Level Houston Center
Thu 10:35:14 AM 31.1886 -100.2997 144° Southeast 468 539 34,900  Level Houston Center
Thu 10:36:17 AM 31.0806 -100.2117 145° Southeast 472 543 34,900  Level Houston Center
Thu 10:37:19 AM 30.9725 -100.1228 145° Southeast 474 545 34,900  Level Houston Center
Thu 10:38:21 AM 30.8642 -100.0336 145° Southeast 476 548 34,900  Level Houston Center
Thu 10:39:23 AM 30.7550 -99.9458 145° Southeast 475 547 34,900  Level Houston Center
Thu 10:40:25 AM 30.6453 -99.8561 145° Southeast 478 550 34,900  Level Houston Center
Thu 10:41:27 AM 30.5278 -99.7164 134° Southeast 505 581 34,900  Level Houston Center
Thu 10:42:29 AM 30.4392 -99.5861 128° Southeast 511 588 34,900 -290 Level Houston Center
Thu 10:43:31 AM 30.3483 -99.4575 129° Southeast 512 589 34,300 -871 Descending Houston Center
Thu 10:44:33 AM 30.2597 -99.3300 129° Southeast 507 583 33,100 -672 Descending Houston Center
Thu 10:45:36 AM 30.1697 -99.2028 129° Southeast 508 585 32,900 -48 Descending Houston Center
Thu 10:46:37 AM 30.0636 -99.0519 129° Southeast 504 580 33,000 48 Climbing Houston Center
Thu 10:47:40 AM 29.9747 -98.9258 129° Southeast 505 581 33,000  Level Houston Center
Thu 10:48:42 AM 29.8864 -98.8008 129° Southeast 502 578 33,000  Level Houston Center
Thu 10:49:44 AM 29.7897 -98.6653 129° Southeast 505 581 33,000  Level Houston Center
Thu 10:50:46 AM 29.6997 -98.5394 129° Southeast 507 583 33,000  Level Houston Center
Thu 10:51:48 AM 29.6461 -98.3817 111° Southeast 548 631 33,000  Level Houston Center
Thu 10:52:50 AM 29.6489 -98.1944 89° East 543 625 33,000  Level Houston Center
Thu 10:53:52 AM 29.6475 -98.0203 90° East 544 626 33,000  Level Houston Center
Thu 10:54:54 AM 29.6178 -97.8500 101° East 543 625 33,000 -48 Level Houston Center
Thu 10:55:56 AM 29.5894 -97.6750 101° East 547 629 32,900 -194 Descending Houston Center
Thu 10:56:58 AM 29.5608 -97.5053 101° East 544 626 32,600 -672 Descending Houston Center
Thu 10:58:01 AM 29.5322 -97.3403 101° East 532 612 31,500 -1,680 Descending Houston Center
Thu 10:59:03 AM 29.5047 -97.1769 101° East 523 602 29,100 -2,274 Descending Houston Center
Thu 11:00:05 AM 29.4769 -97.0133 101° East 520 598 26,800 -2,323 Descending Houston Center
Thu 11:01:07 AM 29.4494 -96.8517 101° East 509 586 24,300 -2,565 Descending Houston Center
Thu 11:02:09 AM 29.4169 -96.6689 101° East 474 545 21,500 -2,419 Descending Houston Center
Thu 11:03:11 AM 29.3919 -96.5303 102° East 449 517 19,300 -2,129 Descending Houston Center
Thu 11:04:13 AM 29.3692 -96.4017 101° East 420 483 17,100 -2,032 Descending Houston Center
Thu 11:05:15 AM 29.3467 -96.2814 102° East 391 450 15,100 -1,982 Descending Houston Center
Thu 11:06:05 AM 29.3281 -96.1767 101° East 367 422 13,400 -1,590 Descending Houston Center
Thu 11:07:12 AM 29.3097 -96.0589 100° East 348 400 12,000 -656 Descending Houston Center
Thu 11:08:13 AM 29.3650 -95.9711 54° Northeast 309 356 12,000 -516 Level Houston Center
Thu 11:09:20 AM 29.4286 -95.9064 42° Northeast 267 307 10,900 -1,083 Descending Houston Center
Thu 11:10:26 AM 29.4806 -95.8494 44° Northeast 272 313 9,600 -1,345 Descending Houston Center
Thu 11:11:16 AM 29.5322 -95.7961 42° Northeast 266 306 8,300 -857 Descending Houston Center
Thu 11:12:18 AM 29.5742 -95.7264 55° Northeast 262 302 8,000 -154 Descending Houston Center
Thu 11:13:13 AM 29.6064 -95.6628 60° Northeast 255 293 8,000  Level Houston Center
Thu 11:13:32 AM 29.6189 -95.6383 60° Northeast 257 296 8,000  Level Houston Center
Thu 11:14:19 AM 29.6450 -95.5789 63° Northeast 253 291 8,000 -97 Level Houston Center
Thu 11:14:34 AM 29.6461 -95.5653 85° East 259 298 7,900 -1,071 Descending Houston Center
Thu 11:15:15 AM 29.6492 -95.5086 86° East 242 278 7,000 -1,161 Descending Houston Center
Thu 11:15:36 AM 29.6511 -95.4881 84° East 247 284 6,700 -1,180 Descending Houston Center
Thu 11:16:16 AM 29.6550 -95.4333 85° East 232 267 5,800 -1,238 Descending Houston Center
Thu 11:16:39 AM 29.6572 -95.4153 82° East 235 270 5,400 -787 Descending Houston Center
Thu 11:17:17 AM 29.6981 -95.3994 19° North 253 291 5,000 -484 Descending Houston Center
Thu 11:17:41 AM 29.7064 -95.4142 303° West 234 269 4,900 -977 Descending Houston Center
Thu 11:18:43 AM 29.7267 -95.4842 288° West 197 227 3,600 -1,109 Descending Houston Center
Thu 11:19:13 AM 29.7542 -95.4864 356° North 222 255 3,200 -677 Descending Houston Center
Thu 11:19:45 AM 29.7822 -95.4653 33° Northeast 223 257 2,900 -984 Descending Houston Center
Thu 11:20:14 AM 29.7856 -95.4369 82° East 170 196 2,200 -871 Descending Houston Center
Thu 11:20:47 AM 29.7703 -95.4231 142° Southeast 189 217 2,000 -197 Descending Houston Center
Thu 11:21:15 AM 29.7511 -95.4050 141° Southeast 159 183 2,000 -97 Level Houston Center
Thu 11:21:49 AM 29.7375 -95.3906 137° Southeast 167 192 1,900  Descending Houston Center
Thu 11:22:16 AM 29.7206 -95.3703 134° Southeast 158 182 2,000 -194 Climbing Houston Center
Thu 11:22:51 AM 29.7092 -95.3556 132° Southeast 157 181 1,700 -689 Descending Houston Center
Thu 11:23:17 AM 29.6967 -95.3394 132° Southeast 119 137 1,300 -677 Descending Houston Center
Thu 11:23:53 AM 29.6856 -95.3267 135° Southeast 142 163 1,000 -590 Descending Houston Center
Thu 11:24:18 AM 29.6711 -95.3111 137° Southeast 128 147 700 -774 Descending Houston Center
Thu 11:24:55 AM 29.6556 -95.2919 133° Southeast 131 151 200 -811 Descending Houston Center

Login

Don't have an account? Register now (free) for customized features, flight alerts, and more!